sensor_id;sensor_type;location;lat;lon;timestamp;pressure;altitude;pressure_sealevel;temperature;humidity
71791;BME280;59638;52.126;5.434;2022-07-29T00:01:02;101975.50;;;14.94;76.45
71791;BME280;59638;52.126;5.434;2022-07-29T00:03:28;101980.13;;;14.92;77.26
71791;BME280;59638;52.126;5.434;2022-07-29T00:05:55;101973.09;;;14.91;76.37
71791;BME280;59638;52.126;5.434;2022-07-29T00:08:21;101970.72;;;14.88;76.60
71791;BME280;59638;52.126;5.434;2022-07-29T00:10:49;101962.88;;;14.87;77.03
71791;BME280;59638;52.126;5.434;2022-07-29T00:13:16;101960.63;;;14.82;77.47
71791;BME280;59638;52.126;5.434;2022-07-29T00:15:42;101964.28;;;14.81;77.42
71791;BME280;59638;52.126;5.434;2022-07-29T00:18:09;101958.28;;;14.79;77.58
71791;BME280;59638;52.126;5.434;2022-07-29T00:20:35;101962.88;;;14.77;76.74
71791;BME280;59638;52.126;5.434;2022-07-29T00:23:02;101951.13;;;14.80;76.76
71791;BME280;59638;52.126;5.434;2022-07-29T00:25:29;101952.81;;;14.81;76.94
71791;BME280;59638;52.126;5.434;2022-07-29T00:27:56;101950.28;;;14.79;77.17
71791;BME280;59638;52.126;5.434;2022-07-29T00:30:22;101946.91;;;14.77;77.11
71791;BME280;59638;52.126;5.434;2022-07-29T00:32:49;101947.19;;;14.74;78.03
71791;BME280;59638;52.126;5.434;2022-07-29T00:35:15;101943.81;;;14.72;77.77
71791;BME280;59638;52.126;5.434;2022-07-29T00:38:00;101938.78;;;14.69;77.95
71791;BME280;59638;52.126;5.434;2022-07-29T00:40:27;101930.81;;;14.69;77.54
71791;BME280;59638;52.126;5.434;2022-07-29T00:42:53;101937.13;;;14.68;77.34
71791;BME280;59638;52.126;5.434;2022-07-29T00:45:20;101928.47;;;14.66;76.85
71791;BME280;59638;52.126;5.434;2022-07-29T00:47:48;101932.06;;;14.65;77.96
71791;BME280;59638;52.126;5.434;2022-07-29T00:50:14;101923.41;;;14.63;78.30
71791;BME280;59638;52.126;5.434;2022-07-29T00:52:42;101921.16;;;14.58;77.45
71791;BME280;59638;52.126;5.434;2022-07-29T00:55:12;101922.28;;;14.56;78.72
71791;BME280;59638;52.126;5.434;2022-07-29T00:57:40;101917.25;;;14.53;78.98
71791;BME280;59638;52.126;5.434;2022-07-29T01:00:10;101917.66;;;14.48;79.10
71791;BME280;59638;52.126;5.434;2022-07-29T01:02:37;101923.31;;;14.43;79.03
71791;BME280;59638;52.126;5.434;2022-07-29T01:05:05;101916.63;;;14.39;79.00
71791;BME280;59638;52.126;5.434;2022-07-29T01:07:34;101917.88;;;14.35;78.37
71791;BME280;59638;52.126;5.434;2022-07-29T01:10:05;101908.47;;;14.31;79.33
71791;BME280;59638;52.126;5.434;2022-07-29T01:12:33;101917.41;;;14.30;79.21
71791;BME280;59638;52.126;5.434;2022-07-29T01:15:02;101916.44;;;14.31;79.32
71791;BME280;59638;52.126;5.434;2022-07-29T01:17:41;101916.97;;;14.25;80.54
71791;BME280;59638;52.126;5.434;2022-07-29T01:20:43;101916.56;;;14.20;80.15
71791;BME280;59638;52.126;5.434;2022-07-29T01:39:38;101908.16;;;14.15;79.96
71791;BME280;59638;52.126;5.434;2022-07-29T01:42:14;101906.19;;;14.17;80.14
71791;BME280;59638;52.126;5.434;2022-07-29T01:44:48;101913.19;;;14.18;79.74
71791;BME280;59638;52.126;5.434;2022-07-29T01:47:20;101902.84;;;14.15;79.15
71791;BME280;59638;52.126;5.434;2022-07-29T01:49:51;101909.81;;;14.06;79.61
71791;BME280;59638;52.126;5.434;2022-07-29T01:52:23;101912.88;;;14.02;79.55
71791;BME280;59638;52.126;5.434;2022-07-29T01:54:57;101916.75;;;13.98;79.91
71791;BME280;59638;52.126;5.434;2022-07-29T01:57:28;101914.63;;;13.92;79.95
71791;BME280;59638;52.126;5.434;2022-07-29T01:59:56;101917.69;;;13.87;80.82
71791;BME280;59638;52.126;5.434;2022-07-29T02:02:26;101913.63;;;13.83;80.53
71791;BME280;59638;52.126;5.434;2022-07-29T02:04:54;101915.28;;;13.84;81.03
71791;BME280;59638;52.126;5.434;2022-07-29T02:07:23;101906.94;;;13.88;81.43
71791;BME280;59638;52.126;5.434;2022-07-29T02:09:52;101905.28;;;13.97;80.38
71791;BME280;59638;52.126;5.434;2022-07-29T02:12:20;101911.59;;;14.06;81.03
71791;BME280;59638;52.126;5.434;2022-07-29T02:14:51;101908.84;;;14.07;80.01
71791;BME280;59638;52.126;5.434;2022-07-29T02:17:29;101908.69;;;14.09;80.39
71791;BME280;59638;52.126;5.434;2022-07-29T02:20:00;101907.84;;;14.08;79.55
71791;BME280;59638;52.126;5.434;2022-07-29T02:22:29;101908.94;;;14.06;80.07
71791;BME280;59638;52.126;5.434;2022-07-29T02:24:58;101902.94;;;14.04;80.48
71791;BME280;59638;52.126;5.434;2022-07-29T02:27:28;101901.97;;;14.05;80.44
71791;BME280;59638;52.126;5.434;2022-07-29T02:29:57;101900.28;;;14.04;81.22
71791;BME280;59638;52.126;5.434;2022-07-29T02:32:26;101901.97;;;14.05;81.27
71791;BME280;59638;52.126;5.434;2022-07-29T02:34:55;101905.59;;;14.04;81.07
71791;BME280;59638;52.126;5.434;2022-07-29T02:37:23;101898.63;;;14.03;80.65
71791;BME280;59638;52.126;5.434;2022-07-29T02:39:52;101903.09;;;14.02;80.61
71791;BME280;59638;52.126;5.434;2022-07-29T02:42:21;101893.69;;;13.98;80.77
71791;BME280;59638;52.126;5.434;2022-07-29T02:44:48;101902.78;;;13.96;81.28
71791;BME280;59638;52.126;5.434;2022-07-29T02:47:30;101893.13;;;13.95;80.69
71791;BME280;59638;52.126;5.434;2022-07-29T02:50:17;101893.53;;;13.90;80.67
71791;BME280;59638;52.126;5.434;2022-07-29T02:53:13;101887.38;;;13.90;82.09
71791;BME280;59638;52.126;5.434;2022-07-29T02:55:43;101894.75;;;13.86;81.74
71791;BME280;59638;52.126;5.434;2022-07-29T02:58:21;101888.91;;;13.82;81.08
71791;BME280;59638;52.126;5.434;2022-07-29T03:00:55;101896.84;;;13.82;81.03
71791;BME280;59638;52.126;5.434;2022-07-29T03:03:25;101901.31;;;13.82;81.39
71791;BME280;59638;52.126;5.434;2022-07-29T03:05:55;101901.31;;;13.82;81.53
71791;BME280;59638;52.126;5.434;2022-07-29T03:08:23;101897.94;;;13.80;81.91
71791;BME280;59638;52.126;5.434;2022-07-29T03:10:51;101894.44;;;13.79;80.94
71791;BME280;59638;52.126;5.434;2022-07-29T03:13:18;101888.19;;;13.80;80.61
71791;BME280;59638;52.126;5.434;2022-07-29T03:15:45;101888.06;;;13.82;81.74
71791;BME280;59638;52.126;5.434;2022-07-29T03:18:14;101886.09;;;13.84;81.43
71791;BME280;59638;52.126;5.434;2022-07-29T03:20:40;101878.97;;;13.84;81.63
71791;BME280;59638;52.126;5.434;2022-07-29T03:23:10;101878.97;;;13.84;81.31
71791;BME280;59638;52.126;5.434;2022-07-29T03:25:36;101879.13;;;13.83;81.60
71791;BME280;59638;52.126;5.434;2022-07-29T03:28:03;101876.59;;;13.81;81.24
71791;BME280;59638;52.126;5.434;2022-07-29T03:30:29;101872.28;;;13.80;81.60
71791;BME280;59638;52.126;5.434;2022-07-29T03:32:57;101870.31;;;13.82;81.23
71791;BME280;59638;52.126;5.434;2022-07-29T03:35:24;101878.28;;;13.82;82.05
71791;BME280;59638;52.126;5.434;2022-07-29T03:37:51;101877.31;;;13.83;81.70
71791;BME280;59638;52.126;5.434;2022-07-29T03:40:25;101870.31;;;13.82;81.74
71791;BME280;59638;52.126;5.434;2022-07-29T03:42:54;101872.97;;;13.82;82.13
71791;BME280;59638;52.126;5.434;2022-07-29T03:45:22;101880.78;;;13.84;82.08
71791;BME280;59638;52.126;5.434;2022-07-29T03:47:52;101863.06;;;13.84;81.38
71791;BME280;59638;52.126;5.434;2022-07-29T03:50:26;101857.50;;;13.87;81.52
71791;BME280;59638;52.126;5.434;2022-07-29T03:52:53;101858.88;;;13.92;81.64
71791;BME280;59638;52.126;5.434;2022-07-29T03:55:19;101847.28;;;13.93;81.48
71791;BME280;59638;52.126;5.434;2022-07-29T03:57:46;101862.28;;;13.94;81.11
71791;BME280;59638;52.126;5.434;2022-07-29T04:00:14;101848.03;;;13.95;80.63
71791;BME280;59638;52.126;5.434;2022-07-29T04:02:45;101854.16;;;13.95;80.65
71791;BME280;59638;52.126;5.434;2022-07-29T04:05:15;101866.75;;;13.93;80.09
71791;BME280;59638;52.126;5.434;2022-07-29T04:07:48;101863.34;;;13.91;80.17
71791;BME280;59638;52.126;5.434;2022-07-29T04:10:15;101864.19;;;13.92;80.77
71791;BME280;59638;52.126;5.434;2022-07-29T04:12:55;101862.53;;;13.91;80.83
71791;BME280;59638;52.126;5.434;2022-07-29T04:15:21;101860.00;;;13.89;80.86
71791;BME280;59638;52.126;5.434;2022-07-29T04:17:48;101858.88;;;13.92;80.50
71791;BME280;59638;52.126;5.434;2022-07-29T04:20:14;101853.47;;;13.93;81.62
71791;BME280;59638;52.126;5.434;2022-07-29T04:22:41;101855.25;;;13.93;80.80
71791;BME280;59638;52.126;5.434;2022-07-29T04:25:07;101850.66;;;13.95;81.55
71791;BME280;59638;52.126;5.434;2022-07-29T04:27:34;101859.47;;;13.95;81.83
71791;BME280;59638;52.126;5.434;2022-07-29T04:30:01;101848.03;;;13.95;80.93
71791;BME280;59638;52.126;5.434;2022-07-29T04:32:27;101852.34;;;13.96;81.89
71791;BME280;59638;52.126;5.434;2022-07-29T04:34:54;101860.03;;;13.99;81.36
71791;BME280;59638;52.126;5.434;2022-07-29T04:37:20;101846.63;;;14.00;82.17
71791;BME280;59638;52.126;5.434;2022-07-29T04:39:46;101853.75;;;14.00;81.45
71791;BME280;59638;52.126;5.434;2022-07-29T04:42:13;101858.22;;;13.99;81.74
71791;BME280;59638;52.126;5.434;2022-07-29T04:44:39;101865.34;;;13.99;81.33
71791;BME280;59638;52.126;5.434;2022-07-29T04:47:08;101862.56;;;14.00;80.90
71791;BME280;59638;52.126;5.434;2022-07-29T04:49:37;101858.09;;;14.01;81.10
71791;BME280;59638;52.126;5.434;2022-07-29T04:52:05;101856.41;;;14.00;81.02
71791;BME280;59638;52.126;5.434;2022-07-29T04:54:31;101855.16;;;14.04;81.28
71791;BME280;59638;52.126;5.434;2022-07-29T04:56:57;101852.78;;;14.01;80.38
71791;BME280;59638;52.126;5.434;2022-07-29T04:59:24;101847.34;;;14.02;80.76
71791;BME280;59638;52.126;5.434;2022-07-29T05:01:51;101859.50;;;14.05;80.65
71791;BME280;59638;52.126;5.434;2022-07-29T05:04:17;101850.53;;;14.06;81.64
71791;BME280;59638;52.126;5.434;2022-07-29T05:06:45;101853.34;;;14.04;81.63
71791;BME280;59638;52.126;5.434;2022-07-29T05:09:11;101862.03;;;14.06;81.24
71791;BME280;59638;52.126;5.434;2022-07-29T05:11:38;101853.19;;;14.06;81.32
71791;BME280;59638;52.126;5.434;2022-07-29T05:14:04;101862.88;;;14.07;81.25
71791;BME280;59638;52.126;5.434;2022-07-29T05:16:31;101858.25;;;14.09;80.95
71791;BME280;59638;52.126;5.434;2022-07-29T05:18:57;101851.97;;;14.10;79.73
71791;BME280;59638;52.126;5.434;2022-07-29T05:21:24;101862.31;;;14.13;80.42
71791;BME280;59638;52.126;5.434;2022-07-29T05:23:50;101859.38;;;14.16;81.61
71791;BME280;59638;52.126;5.434;2022-07-29T05:26:16;101861.66;;;14.21;81.17
71791;BME280;59638;52.126;5.434;2022-07-29T05:28:43;101863.16;;;14.23;80.76
71791;BME280;59638;52.126;5.434;2022-07-29T05:31:09;101870.59;;;14.29;81.34
71791;BME280;59638;52.126;5.434;2022-07-29T05:33:36;101879.25;;;14.31;79.95
71791;BME280;59638;52.126;5.434;2022-07-29T05:36:05;101881.13;;;14.40;80.17
71791;BME280;59638;52.126;5.434;2022-07-29T05:38:34;101880.59;;;14.47;80.98
71791;BME280;59638;52.126;5.434;2022-07-29T05:41:01;101886.06;;;14.55;81.05
71791;BME280;59638;52.126;5.434;2022-07-29T05:43:28;101880.88;;;14.63;79.92
71791;BME280;59638;52.126;5.434;2022-07-29T05:45:55;101881.03;;;14.71;79.88
71791;BME280;59638;52.126;5.434;2022-07-29T05:48:22;101876.72;;;14.80;80.19
71791;BME280;59638;52.126;5.434;2022-07-29T05:50:48;101876.69;;;14.89;79.19
71791;BME280;59638;52.126;5.434;2022-07-29T05:53:14;101875.84;;;14.99;80.19
71791;BME280;59638;52.126;5.434;2022-07-29T05:55:50;101883.66;;;15.10;79.85
71791;BME280;59638;52.126;5.434;2022-07-29T05:58:18;101885.06;;;15.14;79.37
71791;BME280;59638;52.126;5.434;2022-07-29T06:00:45;101885.34;;;15.20;79.47
71791;BME280;59638;52.126;5.434;2022-07-29T06:03:11;101885.03;;;15.33;78.45
71791;BME280;59638;52.126;5.434;2022-07-29T06:05:38;101890.19;;;15.44;78.12
71791;BME280;59638;52.126;5.434;2022-07-29T06:08:05;101880.06;;;15.67;77.12
71791;BME280;59638;52.126;5.434;2022-07-29T06:10:34;101882.09;;;15.83;76.92
71791;BME280;59638;52.126;5.434;2022-07-29T06:13:01;101882.09;;;15.83;78.04
71791;BME280;59638;52.126;5.434;2022-07-29T06:15:27;101877.78;;;15.82;76.24
71791;BME280;59638;52.126;5.434;2022-07-29T06:17:53;101889.81;;;15.86;76.35
71791;BME280;59638;52.126;5.434;2022-07-29T06:20:28;101891.06;;;15.92;75.18
71791;BME280;59638;52.126;5.434;2022-07-29T06:22:56;101895.13;;;15.86;74.52
71791;BME280;59638;52.126;5.434;2022-07-29T06:25:23;101905.50;;;15.89;75.91
71791;BME280;59638;52.126;5.434;2022-07-29T06:27:49;101911.00;;;15.78;74.22
71791;BME280;59638;52.126;5.434;2022-07-29T06:30:16;101918.19;;;15.68;75.63
71791;BME280;59638;52.126;5.434;2022-07-29T06:32:42;101920.84;;;15.48;75.05
71791;BME280;59638;52.126;5.434;2022-07-29T06:35:09;101919.44;;;15.44;75.75
71791;BME280;59638;52.126;5.434;2022-07-29T06:37:55;101921.13;;;15.55;75.89
71791;BME280;59638;52.126;5.434;2022-07-29T06:40:25;101921.53;;;15.70;74.74
71791;BME280;59638;52.126;5.434;2022-07-29T06:43:09;101907.03;;;15.92;74.49
71791;BME280;59638;52.126;5.434;2022-07-29T06:45:36;101907.53;;;16.33;73.73
71791;BME280;59638;52.126;5.434;2022-07-29T06:48:04;101900.16;;;16.72;71.93
71791;BME280;59638;52.126;5.434;2022-07-29T06:50:31;101902.41;;;17.02;71.64
71791;BME280;59638;52.126;5.434;2022-07-29T06:52:57;101907.28;;;17.51;72.31
71791;BME280;59638;52.126;5.434;2022-07-29T06:55:24;101909.28;;;17.75;69.88
71791;BME280;59638;52.126;5.434;2022-07-29T06:57:50;101906.38;;;17.94;68.64
71791;BME280;59638;52.126;5.434;2022-07-29T07:00:17;101916.13;;;18.03;70.06
71791;BME280;59638;52.126;5.434;2022-07-29T07:02:44;101916.44;;;18.08;70.02
71791;BME280;59638;52.126;5.434;2022-07-29T07:05:12;101908.09;;;18.03;69.33
71791;BME280;59638;52.126;5.434;2022-07-29T07:07:39;101907.16;;;18.29;67.59
71791;BME280;59638;52.126;5.434;2022-07-29T07:10:05;101907.78;;;18.65;68.56
71791;BME280;59638;52.126;5.434;2022-07-29T07:12:32;101903.44;;;19.70;65.00
71791;BME280;59638;52.126;5.434;2022-07-29T07:14:58;101904.84;;;19.97;63.97
71791;BME280;59638;52.126;5.434;2022-07-29T07:17:24;101913.66;;;19.66;65.08
71791;BME280;59638;52.126;5.434;2022-07-29T07:19:51;101912.94;;;19.80;63.83
71791;BME280;59638;52.126;5.434;2022-07-29T07:22:17;101909.63;;;19.54;62.91
71791;BME280;59638;52.126;5.434;2022-07-29T07:24:44;101909.81;;;19.61;64.81
71791;BME280;59638;52.126;5.434;2022-07-29T07:27:10;101911.84;;;20.14;65.08
71791;BME280;59638;52.126;5.434;2022-07-29T07:29:36;101907.06;;;20.86;61.87
71791;BME280;59638;52.126;5.434;2022-07-29T07:32:03;101902.88;;;22.33;61.04
71791;BME280;59638;52.126;5.434;2022-07-29T07:34:29;101886.59;;;23.27;55.63
71791;BME280;59638;52.126;5.434;2022-07-29T07:36:56;101887.47;;;24.10;56.48
71791;BME280;59638;52.126;5.434;2022-07-29T07:39:22;101885.63;;;24.72;54.74
71791;BME280;59638;52.126;5.434;2022-07-29T07:41:49;101887.28;;;25.39;48.80
71791;BME280;59638;52.126;5.434;2022-07-29T07:44:15;101882.75;;;25.19;50.21
71791;BME280;59638;52.126;5.434;2022-07-29T07:46:42;101880.22;;;24.91;50.00
71791;BME280;59638;52.126;5.434;2022-07-29T07:49:11;101883.03;;;24.30;50.79
71791;BME280;59638;52.126;5.434;2022-07-29T07:51:37;101878.25;;;23.78;49.94
71791;BME280;59638;52.126;5.434;2022-07-29T07:54:04;101878.22;;;23.71;53.35
71791;BME280;59638;52.126;5.434;2022-07-29T07:56:32;101876.03;;;24.76;50.16
71791;BME280;59638;52.126;5.434;2022-07-29T07:59:00;101873.91;;;25.70;48.39
71791;BME280;59638;52.126;5.434;2022-07-29T08:01:27;101873.38;;;25.29;47.96
71791;BME280;59638;52.126;5.434;2022-07-29T08:03:54;101871.72;;;24.07;49.83
71791;BME280;59638;52.126;5.434;2022-07-29T08:06:20;101874.47;;;23.16;54.54
71791;BME280;59638;52.126;5.434;2022-07-29T08:08:47;101872.88;;;22.58;55.17
71791;BME280;59638;52.126;5.434;2022-07-29T08:11:13;101878.91;;;21.73;57.64
71791;BME280;59638;52.126;5.434;2022-07-29T08:13:40;101885.19;;;21.12;59.34
71791;BME280;59638;52.126;5.434;2022-07-29T08:16:07;101885.41;;;20.88;61.62
71791;BME280;59638;52.126;5.434;2022-07-29T08:18:43;101886.78;;;20.84;58.71
71791;BME280;59638;52.126;5.434;2022-07-29T08:21:10;101887.50;;;20.78;63.14
71791;BME280;59638;52.126;5.434;2022-07-29T08:23:40;101880.28;;;20.78;60.85
71791;BME280;59638;52.126;5.434;2022-07-29T08:26:23;101883.19;;;20.91;61.00
71791;BME280;59638;52.126;5.434;2022-07-29T08:28:49;101886.78;;;21.07;62.25
71791;BME280;59638;52.126;5.434;2022-07-29T08:31:17;101883.72;;;21.77;61.60
71791;BME280;59638;52.126;5.434;2022-07-29T08:33:44;101874.72;;;22.93;55.83
71791;BME280;59638;52.126;5.434;2022-07-29T08:36:10;101872.91;;;23.00;54.06
71791;BME280;59638;52.126;5.434;2022-07-29T08:38:39;101868.94;;;22.96;56.15
71791;BME280;59638;52.126;5.434;2022-07-29T08:41:05;101883.56;;;22.30;57.49
71791;BME280;59638;52.126;5.434;2022-07-29T08:43:32;101880.16;;;21.91;55.84
71791;BME280;59638;52.126;5.434;2022-07-29T08:46:01;101884.16;;;22.10;55.55
71791;BME280;59638;52.126;5.434;2022-07-29T08:48:27;101898.25;;;22.27;57.69
71791;BME280;59638;52.126;5.434;2022-07-29T08:50:55;101894.06;;;22.24;55.32
71791;BME280;59638;52.126;5.434;2022-07-29T08:53:25;101889.09;;;22.64;57.54
71791;BME280;59638;52.126;5.434;2022-07-29T08:55:53;101885.59;;;23.63;56.35
71791;BME280;59638;52.126;5.434;2022-07-29T08:58:20;101877.66;;;25.69;49.65
71791;BME280;59638;52.126;5.434;2022-07-29T09:00:52;101880.72;;;27.01;46.25
71791;BME280;59638;52.126;5.434;2022-07-29T09:03:23;101870.31;;;27.84;44.86
71791;BME280;59638;52.126;5.434;2022-07-29T09:05:51;101874.47;;;27.87;43.83
71791;BME280;59638;52.126;5.434;2022-07-29T09:08:18;101878.38;;;27.04;45.09
71791;BME280;59638;52.126;5.434;2022-07-29T09:10:44;101889.72;;;25.67;47.06
71791;BME280;59638;52.126;5.434;2022-07-29T09:13:11;101879.38;;;24.58;50.71
71791;BME280;59638;52.126;5.434;2022-07-29T09:15:38;101885.19;;;25.47;49.16
71791;BME280;59638;52.126;5.434;2022-07-29T09:18:04;101877.03;;;26.25;48.12
71791;BME280;59638;52.126;5.434;2022-07-29T09:20:31;101881.44;;;27.58;44.91
71791;BME280;59638;52.126;5.434;2022-07-29T09:23:16;101876.88;;;27.95;42.11
71791;BME280;59638;52.126;5.434;2022-07-29T09:25:50;101879.81;;;27.75;44.06
71791;BME280;59638;52.126;5.434;2022-07-29T09:28:17;101881.91;;;26.55;44.34
71791;BME280;59638;52.126;5.434;2022-07-29T09:30:51;101885.91;;;25.94;49.25
71791;BME280;59638;52.126;5.434;2022-07-29T09:33:21;101879.56;;;26.59;47.92
71791;BME280;59638;52.126;5.434;2022-07-29T09:36:09;101880.53;;;27.64;50.17
71791;BME280;59638;52.126;5.434;2022-07-29T09:38:36;101874.63;;;28.22;40.92
71791;BME280;59638;52.126;5.434;2022-07-29T09:41:05;101878.53;;;27.16;43.09
71791;BME280;59638;52.126;5.434;2022-07-29T09:43:33;101870.00;;;26.88;44.27
71791;BME280;59638;52.126;5.434;2022-07-29T09:46:12;101873.59;;;26.50;47.37
71791;BME280;59638;52.126;5.434;2022-07-29T09:48:39;101870.25;;;26.79;46.26
71791;BME280;59638;52.126;5.434;2022-07-29T09:51:19;101868.84;;;26.39;48.46
71791;BME280;59638;52.126;5.434;2022-07-29T09:53:55;101868.56;;;25.57;47.20
71791;BME280;59638;52.126;5.434;2022-07-29T09:56:40;101872.72;;;24.67;51.95
71791;BME280;59638;52.126;5.434;2022-07-29T09:59:08;101873.50;;;24.41;48.68
71791;BME280;59638;52.126;5.434;2022-07-29T10:01:35;101870.59;;;24.36;47.69
71791;BME280;59638;52.126;5.434;2022-07-29T10:04:02;101880.41;;;24.50;48.95
71791;BME280;59638;52.126;5.434;2022-07-29T10:06:29;101882.31;;;24.96;50.88
71791;BME280;59638;52.126;5.434;2022-07-29T10:09:09;101876.47;;;25.39;50.76
71791;BME280;59638;52.126;5.434;2022-07-29T10:11:36;101879.41;;;25.31;46.93
71791;BME280;59638;52.126;5.434;2022-07-29T10:14:14;101885.22;;;25.01;47.21
71791;BME280;59638;52.126;5.434;2022-07-29T10:16:41;101881.72;;;25.07;46.83
71791;BME280;59638;52.126;5.434;2022-07-29T10:19:08;101872.31;;;24.57;49.40
71791;BME280;59638;52.126;5.434;2022-07-29T10:21:35;101884.38;;;24.81;50.42
71791;BME280;59638;52.126;5.434;2022-07-29T10:24:04;101886.75;;;25.95;47.01
71791;BME280;59638;52.126;5.434;2022-07-29T10:26:31;101879.47;;;26.34;46.69
71791;BME280;59638;52.126;5.434;2022-07-29T10:28:58;101888.88;;;25.80;47.46
71791;BME280;59638;52.126;5.434;2022-07-29T10:31:29;101880.56;;;26.96;49.13
71791;BME280;59638;52.126;5.434;2022-07-29T10:34:13;101871.16;;;28.75;44.33
71791;BME280;59638;52.126;5.434;2022-07-29T10:36:57;101875.59;;;29.23;39.72
71791;BME280;59638;52.126;5.434;2022-07-29T10:42:23;101869.00;;;30.51;35.26
71791;BME280;59638;52.126;5.434;2022-07-29T10:44:59;101871.16;;;30.21;37.02
71791;BME280;59638;52.126;5.434;2022-07-29T10:47:27;101871.00;;;29.99;38.81
71791;BME280;59638;52.126;5.434;2022-07-29T10:50:03;101876.91;;;30.53;40.08
71791;BME280;59638;52.126;5.434;2022-07-29T10:52:56;101868.50;;;30.54;43.52
71791;BME280;59638;52.126;5.434;2022-07-29T10:55:31;101864.03;;;30.48;38.44
71791;BME280;59638;52.126;5.434;2022-07-29T10:58:21;101873.31;;;30.19;41.79
71791;BME280;59638;52.126;5.434;2022-07-29T11:00:53;101866.34;;;30.40;38.95
71791;BME280;59638;52.126;5.434;2022-07-29T11:06:15;101870.59;;;31.53;33.48
71791;BME280;59638;52.126;5.434;2022-07-29T11:08:43;101865.28;;;31.63;35.54
71791;BME280;59638;52.126;5.434;2022-07-29T11:13:45;101863.72;;;31.12;36.38
71791;BME280;59638;52.126;5.434;2022-07-29T11:16:14;101873.88;;;30.21;36.43
71791;BME280;59638;52.126;5.434;2022-07-29T11:21:44;101865.94;;;31.92;36.41
71791;BME280;59638;52.126;5.434;2022-07-29T11:24:22;101858.09;;;32.50;35.90
71791;BME280;59638;52.126;5.434;2022-07-29T11:27:11;101861.06;;;33.18;39.90
71791;BME280;59638;52.126;5.434;2022-07-29T11:30:00;101858.03;;;33.09;33.50
71791;BME280;59638;52.126;5.434;2022-07-29T11:32:40;101857.16;;;33.04;36.22
71791;BME280;59638;52.126;5.434;2022-07-29T11:35:20;101870.72;;;32.07;36.30
71791;BME280;59638;52.126;5.434;2022-07-29T11:41:24;101867.25;;;31.46;40.04
71791;BME280;59638;52.126;5.434;2022-07-29T11:43:56;101860.41;;;31.10;35.13
71791;BME280;59638;52.126;5.434;2022-07-29T11:46:52;101863.63;;;31.62;42.45
71791;BME280;59638;52.126;5.434;2022-07-29T11:49:20;101860.88;;;30.56;34.38
71791;BME280;59638;52.126;5.434;2022-07-29T11:51:59;101863.41;;;31.08;34.82
71791;BME280;59638;52.126;5.434;2022-07-29T11:54:33;101853.75;;;31.56;37.41
71791;BME280;59638;52.126;5.434;2022-07-29T11:57:19;101859.53;;;31.82;32.93
71791;BME280;59638;52.126;5.434;2022-07-29T11:59:47;101860.44;;;32.36;33.04
71791;BME280;59638;52.126;5.434;2022-07-29T12:02:14;101858.13;;;32.87;31.93
71791;BME280;59638;52.126;5.434;2022-07-29T12:05:01;101860.56;;;32.52;32.11
71791;BME280;59638;52.126;5.434;2022-07-29T12:07:37;101851.59;;;32.61;33.61
71791;BME280;59638;52.126;5.434;2022-07-29T12:10:06;101854.69;;;32.38;32.60
71791;BME280;59638;52.126;5.434;2022-07-29T12:12:37;101852.84;;;32.81;32.96
71791;BME280;59638;52.126;5.434;2022-07-29T12:15:15;101853.16;;;32.84;35.29
71791;BME280;59638;52.126;5.434;2022-07-29T12:17:46;101849.72;;;32.08;34.87
71791;BME280;59638;52.126;5.434;2022-07-29T12:20:22;101851.06;;;32.59;31.51
71791;BME280;59638;52.126;5.434;2022-07-29T12:22:50;101856.09;;;32.18;31.76
71791;BME280;59638;52.126;5.434;2022-07-29T12:25:19;101859.69;;;31.75;30.61
71791;BME280;59638;52.126;5.434;2022-07-29T12:28:03;101861.59;;;31.53;32.06
71791;BME280;59638;52.126;5.434;2022-07-29T12:33:17;101852.84;;;31.73;31.20
71791;BME280;59638;52.126;5.434;2022-07-29T12:35:47;101865.66;;;31.94;32.23
71791;BME280;59638;52.126;5.434;2022-07-29T12:38:31;101853.44;;;32.24;31.08
71791;BME280;59638;52.126;5.434;2022-07-29T12:40:58;101860.03;;;32.55;30.64
71791;BME280;59638;52.126;5.434;2022-07-29T12:43:25;101865.38;;;32.71;31.82
71791;BME280;59638;52.126;5.434;2022-07-29T12:45:53;101864.53;;;33.03;29.10
71791;BME280;59638;52.126;5.434;2022-07-29T12:48:34;101860.22;;;32.48;32.30
71791;BME280;59638;52.126;5.434;2022-07-29T12:51:02;101861.56;;;31.91;30.33
71791;BME280;59638;52.126;5.434;2022-07-29T12:53:29;101852.66;;;30.23;37.68
71791;BME280;59638;52.126;5.434;2022-07-29T12:55:57;101854.63;;;28.88;39.48
71791;BME280;59638;52.126;5.434;2022-07-29T12:58:40;101855.97;;;28.26;40.09
71791;BME280;59638;52.126;5.434;2022-07-29T13:01:17;101864.66;;;27.68;40.37
71791;BME280;59638;52.126;5.434;2022-07-29T13:03:56;101855.72;;;26.99;40.58
71791;BME280;59638;52.126;5.434;2022-07-29T13:06:44;101853.84;;;26.05;43.50
71791;BME280;59638;52.126;5.434;2022-07-29T13:09:18;101858.53;;;25.64;45.13
71791;BME280;59638;52.126;5.434;2022-07-29T13:11:47;101852.09;;;25.65;48.18
71791;BME280;59638;52.126;5.434;2022-07-29T13:14:32;101852.28;;;25.70;44.87
71791;BME280;59638;52.126;5.434;2022-07-29T13:17:04;101867.25;;;25.80;45.29
71791;BME280;59638;52.126;5.434;2022-07-29T13:19:49;101858.59;;;25.51;47.80
71791;BME280;59638;52.126;5.434;2022-07-29T13:22:21;101850.50;;;25.38;44.06
71791;BME280;59638;52.126;5.434;2022-07-29T13:25:06;101859.88;;;25.15;48.14
71791;BME280;59638;52.126;5.434;2022-07-29T13:27:35;101854.91;;;25.12;47.29
71791;BME280;59638;52.126;5.434;2022-07-29T13:30:07;101861.53;;;25.03;45.42
71791;BME280;59638;52.126;5.434;2022-07-29T13:32:34;101855.31;;;24.83;48.82
71791;BME280;59638;52.126;5.434;2022-07-29T13:35:05;101856.53;;;24.60;46.59
71791;BME280;59638;52.126;5.434;2022-07-29T13:37:33;101856.50;;;24.54;49.89
71791;BME280;59638;52.126;5.434;2022-07-29T13:40:02;101853.22;;;24.58;49.38